createdAt,value
2018-11-10T11:42:44.341Z,998.03
2018-11-10T11:43:43.982Z,998.06
2018-11-10T11:44:43.954Z,998.01
2018-11-10T11:45:43.922Z,998.00
2018-11-10T11:46:43.853Z,998.00
2018-11-10T11:47:43.814Z,998.00
2018-11-10T11:48:44.218Z,997.98
2018-11-10T11:49:43.729Z,997.94
2018-11-10T11:50:43.630Z,997.92
2018-11-10T11:51:43.543Z,997.91
2018-11-10T11:52:43.506Z,997.91
2018-11-10T11:53:43.435Z,997.82
2018-11-10T11:54:43.826Z,997.86
2018-11-10T11:55:43.348Z,997.83
2018-11-10T11:56:43.250Z,997.77
2018-11-10T11:57:43.213Z,997.71
2018-11-10T11:58:44.130Z,997.74
2018-11-10T11:59:43.020Z,997.66
2018-11-10T12:00:43.411Z,997.64
2018-11-10T12:01:42.870Z,997.62
2018-11-10T12:02:42.786Z,997.60
2018-11-10T12:03:42.697Z,997.56
2018-11-10T12:04:42.763Z,997.55
2018-11-10T12:05:42.562Z,997.48
2018-11-10T12:06:42.921Z,997.47
2018-11-10T12:07:42.248Z,997.48
2018-11-10T12:08:42.296Z,997.55
2018-11-10T12:09:42.231Z,997.52
2018-11-10T12:10:42.166Z,997.55
2018-11-10T12:11:42.380Z,997.55
2018-11-10T12:12:41.961Z,997.59
2018-11-10T12:13:41.892Z,997.53
2018-11-10T12:14:41.824Z,997.57
2018-11-10T12:15:41.613Z,997.49
2018-11-10T12:16:41.707Z,997.49
2018-11-10T12:17:41.621Z,997.51
2018-11-10T12:18:42.021Z,997.50
2018-11-10T12:19:41.419Z,997.45
2018-11-10T12:20:41.371Z,997.39
2018-11-10T12:21:41.089Z,997.40
2018-11-10T12:22:41.236Z,997.36
2018-11-10T12:23:41.134Z,997.33
2018-11-10T12:24:41.060Z,997.28
2018-11-10T12:25:40.914Z,997.33
2018-11-10T12:26:40.888Z,997.26
2018-11-10T12:27:40.615Z,997.22
2018-11-10T12:28:40.730Z,997.30
